RKPC/CJU METAR and TAF weather

Enter ICAO airport designator
Station Type Date Time Source
RKPC METAR 2018/12/17 17:00 UTC NOAA

RKPC 171700Z 31011KT 280V350 9999 BKN040 09/01 Q1023 BECMG SCT030


Station Type Date Time Source
RKPC Decoded METAR 2018/12/17 17:00 UTC NOAA

Cheju International Airport, Korea, South (RKPC) 33-30N 126-30E 28M
Dec 17, 2018 - 12:00 PM EST / 2018.12.17 1700 UTC
Wind: from the NW (310 degrees) at 13 MPH (11 KT) (direction variable):0
Visibility: greater than 7 mile(s):0
Sky conditions: mostly cloudy
Temperature: 48 F (9 C)
Dew Point: 33 F (1 C)
Relative Humidity: 57%
Pressure (altimeter): 30.21 in. Hg (1023 hPa)
ob: RKPC 171700Z 31011KT 280V350 9999 BKN040 09/01 Q1023 BECMG SCT030
cycle: 17

Station Type Date Time Source
RKPC TAF 2018/12/17 18:07 UTC NOAA

TAF RKPC 171700Z 1718/1824 31015G25KT 9999 SCT030 TN07/1721Z TX12/1805Z TN07/1821Z
TEMPO 1720/1802 29009KT
BECMG 1811/1812 21007KT


Example: see airport list